CLO weather

Alfonso Bonilla Aragon International Airport
Cali, Valle del Cauca Department, Colombia

Public forecast

Using degrees Celsius for public forecast. Weather courtesy of forecast.io.

METAR (pilot weather report)

Retrieved 2019/05/22 17:00 UTC (13 minutes ago):

SKCL 221700Z 01003KT 9999 SCT020 28/20 A2999 NOSIG

TAF (pilot weather forecast)

Retrieved 2019/05/22 12:55 UTC (4 hours ago):

TAF SKCL 221030Z 2212/2312 15006KT 9999 FEW023 SCT120 TEMPO 2212/2215 6000 DZRA SCT017 BKN070 PROB30 TEMPO 2219/2221 7000 DZRA SCT017CB TX31/2220Z TN20/2310Z